createdAt,value
2019-03-23T00:00:44.970Z,54.30
2019-03-23T00:03:16.968Z,56.53
2019-03-23T00:05:47.495Z,55.67
2019-03-23T00:08:16.891Z,54.98
2019-03-23T00:10:46.425Z,58.83
2019-03-23T00:13:15.866Z,53.30
2019-03-23T00:15:45.304Z,54.95
2019-03-23T00:18:14.798Z,55.25
2019-03-23T00:20:44.223Z,54.25
2019-03-23T00:23:13.684Z,57.88
2019-03-23T00:25:43.861Z,54.50
2019-03-23T00:28:15.100Z,55.80
2019-03-23T00:30:44.619Z,56.35
2019-03-23T00:33:14.331Z,55.58
2019-03-23T00:35:43.707Z,56.15
2019-03-23T00:38:13.136Z,55.80
2019-03-23T00:40:42.546Z,55.52
2019-03-23T00:43:12.090Z,55.88
2019-03-23T00:45:41.520Z,54.55
2019-03-23T00:48:10.879Z,55.30
2019-03-23T00:50:40.234Z,57.60
2019-03-23T00:53:09.584Z,55.88
2019-03-23T00:55:40.358Z,57.20
2019-03-23T00:58:09.735Z,55.92
2019-03-23T01:00:41.827Z,55.67
2019-03-23T01:03:11.199Z,55.65
2019-03-23T01:05:40.532Z,55.08
2019-03-23T01:08:09.894Z,56.55
2019-03-23T01:10:39.644Z,55.45
2019-03-23T01:13:09.063Z,55.03
2019-03-23T01:15:39.514Z,53.92
2019-03-23T01:18:08.879Z,55.28
2019-03-23T01:20:38.245Z,54.58
2019-03-23T01:23:07.689Z,55.12
2019-03-23T01:25:37.116Z,55.95
2019-03-23T01:28:06.476Z,55.73
2019-03-23T01:30:35.827Z,58.58
2019-03-23T01:33:05.299Z,56.18
2019-03-23T01:35:34.726Z,54.63
2019-03-23T01:38:04.076Z,56.10
2019-03-23T01:40:33.449Z,55.17
2019-03-23T01:43:02.925Z,55.55
2019-03-23T01:45:32.273Z,56.40
2019-03-23T01:48:01.677Z,56.23
2019-03-23T01:50:31.016Z,57.55
2019-03-23T01:53:00.911Z,58.58
2019-03-23T01:55:30.311Z,56.58
2019-03-23T01:57:59.670Z,56.77
2019-03-23T02:00:29.016Z,57.95
2019-03-23T02:02:58.374Z,56.45
2019-03-23T02:05:27.751Z,56.35
2019-03-23T02:07:57.092Z,55.80
2019-03-23T02:10:26.435Z,56.65
2019-03-23T02:12:55.779Z,56.53
2019-03-23T02:15:25.228Z,55.67
2019-03-23T02:17:54.751Z,55.80
2019-03-23T02:20:24.205Z,53.48
2019-03-23T02:22:53.535Z,53.25
2019-03-23T02:25:22.982Z,54.30
2019-03-23T02:27:52.323Z,52.43
2019-03-23T02:30:21.665Z,55.75
2019-03-23T02:32:51.020Z,52.80
2019-03-23T02:35:20.352Z,53.30
2019-03-23T02:37:49.716Z,52.43
2019-03-23T02:40:19.145Z,53.10
2019-03-23T02:42:48.555Z,54.48
2019-03-23T02:45:17.906Z,51.42
2019-03-23T02:47:47.244Z,49.90
2019-03-23T02:50:16.595Z,52.85
2019-03-23T02:52:46.065Z,51.37
2019-03-23T02:55:15.440Z,50.63
2019-03-23T02:57:44.840Z,51.18
2019-03-23T03:00:16.307Z,51.65
2019-03-23T03:02:45.648Z,48.73
2019-03-23T03:05:15.099Z,49.67
2019-03-23T03:07:44.465Z,52.05
2019-03-23T03:10:16.960Z,49.58
2019-03-23T03:12:46.311Z,51.10
2019-03-23T03:15:15.743Z,48.25
2019-03-23T03:17:45.131Z,48.60
2019-03-23T03:20:14.493Z,49.05
2019-03-23T03:22:43.915Z,49.38
2019-03-23T03:25:13.883Z,51.73
2019-03-23T03:27:43.316Z,53.55
2019-03-23T03:30:12.976Z,54.80
2019-03-23T03:32:42.469Z,48.20
2019-03-23T03:35:12.001Z,49.63
2019-03-23T03:37:55.431Z,47.67
2019-03-23T03:40:12.347Z,49.15
2019-03-23T03:42:41.694Z,50.28
2019-03-23T03:45:14.169Z,49.25
2019-03-23T03:47:43.568Z,52.62
2019-03-23T03:50:14.478Z,52.88
2019-03-23T03:52:45.096Z,53.05
2019-03-23T03:55:14.516Z,53.63
2019-03-23T03:57:43.917Z,53.63
2019-03-23T04:00:13.501Z,50.73
2019-03-23T04:02:42.836Z,52.00
2019-03-23T04:05:12.204Z,51.53
2019-03-23T04:07:41.583Z,50.38
2019-03-23T04:10:11.360Z,46.40
2019-03-23T04:12:40.796Z,52.78
2019-03-23T04:15:11.511Z,54.65
2019-03-23T04:17:40.847Z,57.48
2019-03-23T04:20:11.329Z,51.05
2019-03-23T04:22:40.687Z,48.02
2019-03-23T04:25:11.267Z,49.83
2019-03-23T04:27:40.627Z,48.52
2019-03-23T04:30:12.065Z,49.93
2019-03-23T04:32:41.505Z,49.88
2019-03-23T04:35:11.074Z,49.30
2019-03-23T04:37:40.418Z,51.90
2019-03-23T04:40:11.969Z,50.83
2019-03-23T04:42:41.455Z,52.93
2019-03-23T04:45:11.406Z,51.65
2019-03-23T04:47:40.745Z,52.62
2019-03-23T04:50:11.507Z,52.85
2019-03-23T04:52:41.099Z,50.05
2019-03-23T04:55:12.753Z,49.13
2019-03-23T04:57:42.247Z,50.12
2019-03-23T05:00:19.032Z,47.45
2019-03-23T05:02:48.421Z,49.58
2019-03-23T05:05:17.842Z,47.73
2019-03-23T05:07:47.175Z,46.48
2019-03-23T05:10:16.512Z,48.90
2019-03-23T05:12:46.931Z,48.70
2019-03-23T05:15:16.340Z,49.30
2019-03-23T05:17:45.847Z,51.33
2019-03-23T05:20:29.835Z,47.93
2019-03-23T05:22:59.503Z,50.38
2019-03-23T05:25:29.941Z,49.03
2019-03-23T05:27:59.280Z,49.45
2019-03-23T05:30:28.692Z,48.42
2019-03-23T05:32:58.048Z,47.95
2019-03-23T05:35:27.479Z,51.37
2019-03-23T05:37:56.819Z,49.45
2019-03-23T05:40:26.151Z,51.37
2019-03-23T05:42:55.515Z,52.38
2019-03-23T05:45:24.846Z,50.92
2019-03-23T05:47:54.184Z,51.10
2019-03-23T05:50:23.652Z,49.95
2019-03-23T05:52:53.073Z,50.95
2019-03-23T05:55:22.443Z,53.40
2019-03-23T05:57:51.831Z,51.35
2019-03-23T06:00:21.245Z,51.23
2019-03-23T06:02:50.585Z,49.75
2019-03-23T06:05:19.951Z,47.90
2019-03-23T06:07:49.280Z,50.12
2019-03-23T06:10:18.698Z,48.23
2019-03-23T06:12:48.111Z,49.13
2019-03-23T06:15:17.452Z,49.08
2019-03-23T06:17:46.825Z,49.98
2019-03-23T06:20:16.166Z,50.58
2019-03-23T06:22:45.532Z,48.98
2019-03-23T06:25:14.949Z,49.80
2019-03-23T06:27:44.334Z,45.75
2019-03-23T06:30:13.772Z,44.25
2019-03-23T06:32:44.346Z,45.90
2019-03-23T06:35:13.658Z,47.73
2019-03-23T06:37:42.978Z,45.70
2019-03-23T06:40:12.667Z,45.43
2019-03-23T06:42:42.025Z,45.38
2019-03-23T06:45:12.939Z,45.98
2019-03-23T06:47:42.339Z,48.48
2019-03-23T06:50:12.663Z,48.92
2019-03-23T06:52:42.030Z,46.98
2019-03-23T06:55:11.535Z,46.68
2019-03-23T06:57:40.891Z,47.75
2019-03-23T07:00:13.427Z,48.20
2019-03-23T07:02:42.767Z,45.73
2019-03-23T07:05:13.079Z,48.00
2019-03-23T07:07:42.561Z,46.42
2019-03-23T07:10:13.578Z,45.73
2019-03-23T07:12:43.038Z,46.00
2019-03-23T07:15:20.360Z,46.33
2019-03-23T07:17:48.009Z,44.93
2019-03-23T07:20:17.615Z,45.25
2019-03-23T07:22:46.970Z,44.38
2019-03-23T07:25:16.326Z,47.38
2019-03-23T07:27:45.663Z,45.17
2019-03-23T07:30:18.487Z,46.53
2019-03-23T07:32:47.830Z,46.85
2019-03-23T07:35:17.570Z,45.28
2019-03-23T07:37:46.914Z,47.20
2019-03-23T07:40:16.305Z,45.03
2019-03-23T07:42:46.711Z,45.98
2019-03-23T07:45:16.971Z,46.23
2019-03-23T07:47:46.318Z,45.00
2019-03-23T07:50:16.104Z,44.83
2019-03-23T07:52:45.613Z,45.05
2019-03-23T07:55:16.261Z,46.95
2019-03-23T07:57:46.555Z,43.70
2019-03-23T08:00:21.032Z,43.73
2019-03-23T08:05:18.971Z,42.27
2019-03-23T08:07:48.400Z,45.20
2019-03-23T08:10:31.239Z,44.83
2019-03-23T08:13:00.939Z,44.38
2019-03-23T08:15:30.686Z,44.33
2019-03-23T08:18:00.128Z,46.55
2019-03-23T08:20:29.548Z,46.00
2019-03-23T08:22:58.888Z,43.65
2019-03-23T08:25:28.292Z,44.90
2019-03-23T08:27:57.651Z,45.35
2019-03-23T08:30:27.023Z,44.77
2019-03-23T08:32:56.395Z,44.00
2019-03-23T08:35:25.744Z,47.55
2019-03-23T08:37:59.129Z,46.83
2019-03-23T08:40:31.120Z,47.35
2019-03-23T08:43:02.622Z,46.25
2019-03-23T08:45:32.046Z,46.33
2019-03-23T08:48:01.399Z,46.83
2019-03-23T08:50:30.754Z,46.53
2019-03-23T08:53:00.679Z,46.42
2019-03-23T08:55:30.009Z,46.70
2019-03-23T08:57:59.361Z,46.23
2019-03-23T09:00:28.687Z,45.88
2019-03-23T09:02:58.151Z,46.18
2019-03-23T09:05:27.471Z,47.03
2019-03-23T09:07:56.892Z,45.75
2019-03-23T09:10:27.683Z,43.10
2019-03-23T09:12:58.402Z,45.08
2019-03-23T09:15:27.802Z,44.85
2019-03-23T09:17:57.232Z,45.85
2019-03-23T09:20:29.693Z,46.05
2019-03-23T09:23:00.608Z,44.75
2019-03-23T09:25:31.844Z,45.95
2019-03-23T09:28:01.980Z,47.83
2019-03-23T09:30:31.363Z,45.58
2019-03-23T09:33:00.745Z,47.88
2019-03-23T09:35:30.130Z,46.00
2019-03-23T09:37:59.491Z,44.73
2019-03-23T09:40:28.891Z,43.40
2019-03-23T09:42:58.334Z,46.05
2019-03-23T09:45:27.706Z,44.60
2019-03-23T09:47:57.116Z,43.80
2019-03-23T09:50:26.438Z,43.35
2019-03-23T09:52:56.036Z,43.95
2019-03-23T09:55:25.437Z,45.58
2019-03-23T09:57:54.827Z,44.58
2019-03-23T10:00:24.308Z,44.42
2019-03-23T10:02:53.815Z,44.42
2019-03-23T10:05:24.239Z,44.93
2019-03-23T10:07:53.555Z,42.40
2019-03-23T10:10:22.976Z,41.85
2019-03-23T10:12:53.312Z,40.20
2019-03-23T10:15:22.777Z,40.65
2019-03-23T10:17:52.135Z,42.20
2019-03-23T10:20:21.642Z,42.62
2019-03-23T10:22:52.302Z,42.20
2019-03-23T10:25:21.714Z,41.28
2019-03-23T10:27:51.306Z,39.48
2019-03-23T10:30:20.794Z,41.65
2019-03-23T10:32:50.164Z,41.48
2019-03-23T10:35:19.995Z,38.28
2019-03-23T10:37:49.357Z,38.23
2019-03-23T10:40:20.511Z,38.48
2019-03-23T10:42:49.939Z,41.05
2019-03-23T10:45:19.366Z,39.75
2019-03-23T10:47:49.028Z,39.00
2019-03-23T10:50:18.656Z,38.85
2019-03-23T10:52:48.132Z,40.08
2019-03-23T10:55:17.679Z,39.18
2019-03-23T10:57:47.333Z,37.70
2019-03-23T11:00:16.880Z,39.05
2019-03-23T11:02:46.382Z,38.63
2019-03-23T11:05:15.792Z,39.83
2019-03-23T11:07:45.427Z,39.08
2019-03-23T11:10:15.031Z,40.12
2019-03-23T11:12:44.546Z,41.35
2019-03-23T11:15:14.231Z,42.90
2019-03-23T11:17:43.701Z,41.98
2019-03-23T11:20:13.853Z,41.90
2019-03-23T11:22:44.665Z,44.20
2019-03-23T11:25:14.241Z,45.08
2019-03-23T11:27:43.722Z,46.13
2019-03-23T11:30:14.290Z,46.65
2019-03-23T11:32:43.694Z,46.15
2019-03-23T11:35:13.584Z,47.98
2019-03-23T11:37:43.325Z,49.27
2019-03-23T11:40:13.998Z,48.80
2019-03-23T11:42:49.834Z,48.95
2019-03-23T11:45:14.524Z,49.18
2019-03-23T11:47:43.895Z,48.45
2019-03-23T11:50:13.235Z,48.17
2019-03-23T11:52:42.636Z,47.33
2019-03-23T11:55:12.042Z,50.17
2019-03-23T11:57:42.753Z,52.65
2019-03-23T12:00:14.570Z,50.65
2019-03-23T12:02:43.971Z,53.28
2019-03-23T12:05:14.714Z,53.75
2019-03-23T12:07:44.390Z,55.58
2019-03-23T12:10:14.388Z,52.67
2019-03-23T12:12:43.706Z,52.40
2019-03-23T12:15:14.090Z,49.95
2019-03-23T12:17:43.430Z,51.05
2019-03-23T12:20:13.025Z,49.63
2019-03-23T12:22:42.718Z,47.17
2019-03-23T12:25:12.309Z,48.10
2019-03-23T12:27:41.729Z,48.00
2019-03-23T12:30:16.357Z,46.28
2019-03-23T12:32:45.706Z,48.28
2019-03-23T12:35:15.389Z,48.63
2019-03-23T12:37:44.729Z,47.45
2019-03-23T12:40:17.399Z,48.75
2019-03-23T12:42:46.723Z,48.98
2019-03-23T12:45:16.221Z,48.23
2019-03-23T12:47:45.582Z,48.45
2019-03-23T12:50:14.998Z,51.02
2019-03-23T12:52:44.407Z,47.95
2019-03-23T12:55:13.760Z,49.33
2019-03-23T12:57:43.188Z,49.15
2019-03-23T13:00:14.913Z,49.70
2019-03-23T13:02:44.362Z,50.70
2019-03-23T13:05:14.050Z,52.62
2019-03-23T13:07:43.476Z,56.42
2019-03-23T13:10:15.112Z,52.05
2019-03-23T13:12:44.462Z,52.17
2019-03-23T13:15:15.731Z,52.93
2019-03-23T13:17:46.246Z,53.55
2019-03-23T13:20:16.899Z,51.80
2019-03-23T13:22:46.326Z,52.70
2019-03-23T13:25:15.735Z,49.63
2019-03-23T13:27:45.102Z,48.20
2019-03-23T13:30:19.229Z,46.73
2019-03-23T13:32:48.630Z,49.35
2019-03-23T13:35:17.985Z,46.48
2019-03-23T13:37:47.462Z,46.55
2019-03-23T13:40:16.805Z,45.70
2019-03-23T13:42:46.257Z,46.35
2019-03-23T13:45:19.032Z,45.55
2019-03-23T13:47:48.456Z,44.35
2019-03-23T13:50:20.971Z,45.20
2019-03-23T13:52:50.358Z,41.30
2019-03-23T13:55:27.424Z,42.35
2019-03-23T13:57:58.336Z,39.78
2019-03-23T14:00:27.676Z,39.38
2019-03-23T14:02:57.023Z,39.08
2019-03-23T14:05:26.447Z,36.42
2019-03-23T14:07:55.785Z,37.40
2019-03-23T14:10:25.114Z,36.50
2019-03-23T14:12:54.482Z,35.50
2019-03-23T14:15:23.837Z,36.00
2019-03-23T14:17:53.227Z,36.13
2019-03-23T14:20:22.603Z,37.30
2019-03-23T14:22:52.006Z,34.60
2019-03-23T14:25:21.434Z,34.50
2019-03-23T14:27:50.769Z,33.28
2019-03-23T14:30:20.189Z,31.35
2019-03-23T14:32:49.604Z,32.28
2019-03-23T14:35:19.316Z,32.05
2019-03-23T14:37:48.675Z,32.33
2019-03-23T14:40:18.007Z,31.55
2019-03-23T14:42:47.447Z,31.17
2019-03-23T14:45:16.822Z,29.25
2019-03-23T14:47:46.208Z,31.10
2019-03-23T14:50:15.546Z,31.12
2019-03-23T14:52:45.683Z,31.33
2019-03-23T14:55:15.039Z,30.32
2019-03-23T14:57:45.503Z,31.15
2019-03-23T15:00:17.926Z,30.17
2019-03-23T15:02:47.263Z,32.20
2019-03-23T15:05:16.595Z,33.20
2019-03-23T15:07:46.364Z,33.78
2019-03-23T15:10:15.785Z,32.00
2019-03-23T15:12:45.191Z,34.05
2019-03-23T15:15:14.529Z,34.13
2019-03-23T15:17:48.989Z,32.60
2019-03-23T15:20:16.382Z,32.23
2019-03-23T15:22:45.728Z,31.97
2019-03-23T15:25:16.505Z,32.20
2019-03-23T15:27:45.883Z,28.20
2019-03-23T15:30:15.290Z,27.75
2019-03-23T15:32:44.635Z,28.52
2019-03-23T15:35:13.999Z,27.02
2019-03-23T15:37:43.324Z,26.87
2019-03-23T15:40:12.677Z,24.05
2019-03-23T15:42:41.995Z,23.38
2019-03-23T15:45:11.689Z,22.37
2019-03-23T15:47:41.062Z,22.10
2019-03-23T15:50:11.618Z,23.75
2019-03-23T15:52:43.949Z,22.93
2019-03-23T15:55:14.433Z,21.30
2019-03-23T15:57:43.865Z,21.52
2019-03-23T16:00:14.056Z,22.42
2019-03-23T16:02:43.447Z,23.65
2019-03-23T16:05:13.011Z,22.65
2019-03-23T16:07:42.342Z,20.40
2019-03-23T16:10:11.936Z,22.27
2019-03-23T16:12:41.523Z,23.35
2019-03-23T16:15:12.081Z,22.77
2019-03-23T16:17:41.634Z,21.40
2019-03-23T16:20:12.478Z,20.40
2019-03-23T16:22:42.020Z,20.55
2019-03-23T16:25:12.302Z,21.07
2019-03-23T16:27:41.751Z,21.25
2019-03-23T16:30:14.107Z,22.90
2019-03-23T16:32:43.770Z,23.55
2019-03-23T16:35:13.238Z,22.58
2019-03-23T16:37:42.652Z,23.98
2019-03-23T16:40:12.377Z,23.42
2019-03-23T16:42:45.641Z,24.92
2019-03-23T16:45:13.150Z,24.72
2019-03-23T16:47:42.556Z,23.75
2019-03-23T16:50:13.211Z,23.35
2019-03-23T16:52:42.549Z,18.32
2019-03-23T16:55:12.053Z,17.50
2019-03-23T16:57:41.673Z,16.80
2019-03-23T17:00:13.267Z,15.58
2019-03-23T17:02:42.621Z,14.83
2019-03-23T17:05:12.173Z,15.03
2019-03-23T17:07:41.614Z,14.65
2019-03-23T17:10:12.349Z,15.90
2019-03-23T17:12:41.763Z,15.65
2019-03-23T17:15:11.274Z,16.27
2019-03-23T17:17:40.768Z,15.78
2019-03-23T17:20:11.010Z,15.35
2019-03-23T17:22:40.415Z,14.13
2019-03-23T17:25:10.909Z,13.55
2019-03-23T17:27:40.250Z,12.28
2019-03-23T17:30:10.642Z,12.63
2019-03-23T17:32:40.103Z,11.03
2019-03-23T17:35:09.826Z,11.78
2019-03-23T17:37:39.317Z,11.63
2019-03-23T17:40:09.646Z,11.33
2019-03-23T17:42:39.203Z,11.38
2019-03-23T17:45:08.661Z,11.80
2019-03-23T17:47:39.184Z,11.78
2019-03-23T17:50:08.839Z,12.90
2019-03-23T17:52:38.490Z,11.15
2019-03-23T17:55:08.996Z,12.40
2019-03-23T17:57:38.426Z,12.50
2019-03-23T18:00:12.101Z,11.57
2019-03-23T18:02:41.480Z,11.90
2019-03-23T18:05:12.209Z,11.97
2019-03-23T18:07:42.175Z,12.98
2019-03-23T18:10:11.934Z,11.78
2019-03-23T18:12:41.395Z,12.10
2019-03-23T18:15:12.977Z,12.53
2019-03-23T18:17:44.003Z,12.18
2019-03-23T18:20:15.035Z,12.10
2019-03-23T18:22:44.499Z,12.75
2019-03-23T18:25:14.044Z,12.13
2019-03-23T18:27:43.491Z,11.63
2019-03-23T18:30:39.378Z,12.55
2019-03-23T18:33:08.874Z,12.00
2019-03-23T18:35:38.411Z,12.80
2019-03-23T18:38:07.837Z,12.98
2019-03-23T18:40:37.777Z,14.45
2019-03-23T18:43:07.263Z,14.25
2019-03-23T18:45:36.765Z,15.25
2019-03-23T18:48:06.576Z,14.10
2019-03-23T18:50:37.110Z,15.23
2019-03-23T18:53:06.493Z,16.20
2019-03-23T18:55:36.036Z,17.95
2019-03-23T18:58:05.426Z,16.70
2019-03-23T19:00:37.600Z,18.45
2019-03-23T19:03:08.684Z,18.73
2019-03-23T19:05:38.057Z,20.05
2019-03-23T19:08:07.750Z,20.88
2019-03-23T19:10:37.253Z,20.32
2019-03-23T19:13:06.746Z,21.23
2019-03-23T19:15:36.160Z,21.33
2019-03-23T19:18:06.113Z,22.15
2019-03-23T19:20:36.203Z,23.42
2019-03-23T19:23:08.718Z,23.77
2019-03-23T19:25:38.110Z,24.47
2019-03-23T19:28:07.562Z,25.57
2019-03-23T19:30:37.057Z,25.82
2019-03-23T19:33:06.505Z,26.30
2019-03-23T19:35:37.099Z,27.10
2019-03-23T19:38:06.472Z,25.97
2019-03-23T19:40:35.821Z,27.77
2019-03-23T19:43:05.237Z,27.50
2019-03-23T19:45:34.648Z,27.37
2019-03-23T19:48:04.174Z,27.40
2019-03-23T19:50:33.581Z,27.25
2019-03-23T19:53:02.979Z,28.25
2019-03-23T19:55:32.409Z,28.40
2019-03-23T19:58:01.785Z,29.35
2019-03-23T20:00:31.212Z,27.17
2019-03-23T20:03:00.629Z,28.40
2019-03-23T20:05:30.021Z,28.15
2019-03-23T20:07:59.355Z,27.90
2019-03-23T20:10:28.866Z,30.12
2019-03-23T20:12:58.231Z,28.55
2019-03-23T20:15:27.661Z,29.65
2019-03-23T20:17:57.070Z,27.95
2019-03-23T20:20:26.411Z,27.80
2019-03-23T20:22:55.760Z,27.80
2019-03-23T20:25:26.234Z,27.30
2019-03-23T20:27:55.655Z,24.70
2019-03-23T20:30:25.006Z,25.10
2019-03-23T20:32:54.454Z,23.75
2019-03-23T20:35:23.866Z,23.25
2019-03-23T20:37:53.222Z,25.40
2019-03-23T20:40:22.664Z,22.95
2019-03-23T20:42:52.107Z,24.12
2019-03-23T20:45:27.212Z,24.72
2019-03-23T20:47:56.823Z,23.27
2019-03-23T20:50:26.235Z,23.95
2019-03-23T20:52:55.624Z,24.40
2019-03-23T20:55:27.229Z,23.98
2019-03-23T20:57:56.633Z,25.68
2019-03-23T21:00:26.054Z,23.27
2019-03-23T21:02:55.385Z,24.23
2019-03-23T21:05:33.080Z,24.45
2019-03-23T21:07:55.794Z,24.40
2019-03-23T21:10:25.283Z,25.48
2019-03-23T21:12:54.711Z,25.08
2019-03-23T21:15:24.468Z,24.07
2019-03-23T21:17:53.828Z,24.15
2019-03-23T21:20:23.190Z,25.80
2019-03-23T21:22:52.639Z,25.37
2019-03-23T21:25:23.087Z,25.35
2019-03-23T21:27:52.524Z,26.10
2019-03-23T21:30:22.344Z,25.75
2019-03-23T21:32:51.758Z,25.72
2019-03-23T21:35:21.187Z,26.77
2019-03-23T21:37:51.140Z,27.05
2019-03-23T21:40:20.910Z,26.35
2019-03-23T21:42:51.649Z,26.93
2019-03-23T21:45:21.108Z,25.02
2019-03-23T21:47:50.461Z,27.17
2019-03-23T21:50:19.876Z,25.75
2019-03-23T21:52:49.275Z,26.77
2019-03-23T21:55:18.660Z,26.02
2019-03-23T21:57:48.591Z,27.45
2019-03-23T22:00:35.130Z,27.00
2019-03-23T22:03:04.847Z,26.73
2019-03-23T22:05:34.226Z,25.90
2019-03-23T22:08:03.606Z,26.80
2019-03-23T22:10:33.042Z,26.68
2019-03-23T22:13:02.406Z,27.25
2019-03-23T22:15:33.232Z,25.72
2019-03-23T22:18:02.714Z,26.97
2019-03-23T22:20:32.204Z,27.05
2019-03-23T22:23:03.246Z,27.87
2019-03-23T22:25:47.183Z,28.20
2019-03-23T22:28:17.276Z,29.27
2019-03-23T22:30:46.655Z,27.73
2019-03-23T22:33:16.003Z,27.62
2019-03-23T22:35:45.412Z,28.42
2019-03-23T22:38:14.834Z,27.98
2019-03-23T22:40:44.162Z,28.85
2019-03-23T22:43:13.560Z,27.58
2019-03-23T22:45:42.918Z,28.32
2019-03-23T22:48:12.243Z,29.27
2019-03-23T22:50:41.587Z,29.00
2019-03-23T22:53:10.929Z,28.73
2019-03-23T22:55:40.341Z,31.23
2019-03-23T22:58:09.704Z,30.30
2019-03-23T23:00:43.926Z,30.50
2019-03-23T23:03:15.141Z,30.32
2019-03-23T23:05:45.032Z,31.17
2019-03-23T23:08:16.035Z,31.85
2019-03-23T23:10:45.349Z,28.85
2019-03-23T23:13:14.671Z,28.90
2019-03-23T23:15:44.058Z,29.12
2019-03-23T23:18:13.388Z,29.30
2019-03-23T23:21:04.610Z,30.62
2019-03-23T23:23:34.646Z,30.97
2019-03-23T23:26:04.051Z,29.90
2019-03-23T23:28:33.386Z,30.20
2019-03-23T23:31:02.710Z,29.87
2019-03-23T23:33:32.052Z,31.37
2019-03-23T23:36:01.505Z,32.00
2019-03-23T23:38:31.384Z,32.50
2019-03-23T23:41:01.478Z,32.08
2019-03-23T23:43:30.802Z,33.28
2019-03-23T23:46:00.167Z,31.23
2019-03-23T23:48:29.559Z,31.87
2019-03-23T23:50:58.896Z,32.88
2019-03-23T23:53:28.236Z,32.23
2019-03-23T23:55:57.647Z,34.55
2019-03-23T23:58:27.035Z,33.30
